sensor_id;sensor_type;location;lat;lon;timestamp;temperature;humidity
16106;DHT22;8157;51.480;6.624;2023-06-05T00:01:50;17.00;56.00
16106;DHT22;8157;51.480;6.624;2023-06-05T00:04:17;17.00;56.30
16106;DHT22;8157;51.480;6.624;2023-06-05T00:06:44;16.90;56.30
16106;DHT22;8157;51.480;6.624;2023-06-05T00:09:11;16.90;56.30
16106;DHT22;8157;51.480;6.624;2023-06-05T00:11:39;16.90;56.40
16106;DHT22;8157;51.480;6.624;2023-06-05T00:14:08;16.80;56.50
16106;DHT22;8157;51.480;6.624;2023-06-05T00:16:36;16.80;56.60
16106;DHT22;8157;51.480;6.624;2023-06-05T00:19:03;16.80;56.60
16106;DHT22;8157;51.480;6.624;2023-06-05T00:21:30;16.70;56.50
16106;DHT22;8157;51.480;6.624;2023-06-05T00:23:58;16.70;56.80
16106;DHT22;8157;51.480;6.624;2023-06-05T00:26:26;16.70;56.90
16106;DHT22;8157;51.480;6.624;2023-06-05T00:28:53;17.60;57.50
16106;DHT22;8157;51.480;6.624;2023-06-05T00:31:21;17.20;57.30
16106;DHT22;8157;51.480;6.624;2023-06-05T00:33:48;16.60;57.10
16106;DHT22;8157;51.480;6.624;2023-06-05T00:36:19;16.60;57.20
16106;DHT22;8157;51.480;6.624;2023-06-05T00:38:48;16.60;57.30
16106;DHT22;8157;51.480;6.624;2023-06-05T00:41:15;16.50;57.40
16106;DHT22;8157;51.480;6.624;2023-06-05T00:43:44;16.50;57.50
16106;DHT22;8157;51.480;6.624;2023-06-05T00:46:11;16.50;57.60
16106;DHT22;8157;51.480;6.624;2023-06-05T00:48:40;16.40;57.60
16106;DHT22;8157;51.480;6.624;2023-06-05T00:51:09;16.40;57.80
16106;DHT22;8157;51.480;6.624;2023-06-05T00:53:41;16.40;58.50
16106;DHT22;8157;51.480;6.624;2023-06-05T00:56:09;16.40;58.10
16106;DHT22;8157;51.480;6.624;2023-06-05T00:58:37;16.30;58.00
16106;DHT22;8157;51.480;6.624;2023-06-05T01:01:05;16.30;58.10
16106;DHT22;8157;51.480;6.624;2023-06-05T01:03:33;16.30;58.20
16106;DHT22;8157;51.480;6.624;2023-06-05T01:06:02;16.30;58.20
16106;DHT22;8157;51.480;6.624;2023-06-05T01:08:31;16.20;58.30
16106;DHT22;8157;51.480;6.624;2023-06-05T01:11:13;16.20;58.40
16106;DHT22;8157;51.480;6.624;2023-06-05T01:13:46;16.20;58.60
16106;DHT22;8157;51.480;6.624;2023-06-05T01:16:18;16.10;58.80
16106;DHT22;8157;51.480;6.624;2023-06-05T01:18:45;16.10;58.50
16106;DHT22;8157;51.480;6.624;2023-06-05T01:21:14;16.10;58.60
16106;DHT22;8157;51.480;6.624;2023-06-05T01:23:43;16.10;58.80
16106;DHT22;8157;51.480;6.624;2023-06-05T01:26:18;16.10;58.90
16106;DHT22;8157;51.480;6.624;2023-06-05T01:28:49;16.00;59.20
16106;DHT22;8157;51.480;6.624;2023-06-05T01:31:20;16.00;59.00
16106;DHT22;8157;51.480;6.624;2023-06-05T01:33:51;16.20;59.10
16106;DHT22;8157;51.480;6.624;2023-06-05T01:36:22;16.00;59.10
16106;DHT22;8157;51.480;6.624;2023-06-05T01:38:51;16.50;59.50
16106;DHT22;8157;51.480;6.624;2023-06-05T01:41:20;15.90;59.30
16106;DHT22;8157;51.480;6.624;2023-06-05T01:43:47;15.90;59.30
16106;DHT22;8157;51.480;6.624;2023-06-05T01:46:20;15.80;59.30
16106;DHT22;8157;51.480;6.624;2023-06-05T01:48:47;16.40;59.90
16106;DHT22;8157;51.480;6.624;2023-06-05T01:51:16;15.80;59.50
16106;DHT22;8157;51.480;6.624;2023-06-05T01:53:43;15.80;59.60
16106;DHT22;8157;51.480;6.624;2023-06-05T01:56:16;15.70;59.70
16106;DHT22;8157;51.480;6.624;2023-06-05T01:58:46;15.70;60.60
16106;DHT22;8157;51.480;6.624;2023-06-05T02:01:14;15.70;59.80
16106;DHT22;8157;51.480;6.624;2023-06-05T02:03:42;15.70;59.90
16106;DHT22;8157;51.480;6.624;2023-06-05T02:06:14;15.70;59.80
16106;DHT22;8157;51.480;6.624;2023-06-05T02:08:42;16.10;60.30
16106;DHT22;8157;51.480;6.624;2023-06-05T02:11:10;15.60;60.10
16106;DHT22;8157;51.480;6.624;2023-06-05T02:13:39;15.50;60.10
16106;DHT22;8157;51.480;6.624;2023-06-05T02:16:10;15.60;60.60
16106;DHT22;8157;51.480;6.624;2023-06-05T02:18:38;15.50;60.60
16106;DHT22;8157;51.480;6.624;2023-06-05T02:21:05;15.50;60.40
16106;DHT22;8157;51.480;6.624;2023-06-05T02:23:32;15.40;60.40
16106;DHT22;8157;51.480;6.624;2023-06-05T02:25:59;15.40;60.70
16106;DHT22;8157;51.480;6.624;2023-06-05T02:28:27;15.40;60.60
16106;DHT22;8157;51.480;6.624;2023-06-05T02:30:55;15.80;61.10
16106;DHT22;8157;51.480;6.624;2023-06-05T02:33:23;16.30;61.70
16106;DHT22;8157;51.480;6.624;2023-06-05T02:35:50;15.20;61.10
16106;DHT22;8157;51.480;6.624;2023-06-05T02:38:17;15.20;61.20
16106;DHT22;8157;51.480;6.624;2023-06-05T02:40:44;15.20;61.30
16106;DHT22;8157;51.480;6.624;2023-06-05T02:43:11;15.10;61.40
16106;DHT22;8157;51.480;6.624;2023-06-05T02:45:39;15.30;61.60
16106;DHT22;8157;51.480;6.624;2023-06-05T02:48:09;15.10;61.60
16106;DHT22;8157;51.480;6.624;2023-06-05T02:50:36;15.90;62.10
16106;DHT22;8157;51.480;6.624;2023-06-05T02:53:07;15.00;61.70
16106;DHT22;8157;51.480;6.624;2023-06-05T02:55:36;14.90;61.70
16106;DHT22;8157;51.480;6.624;2023-06-05T02:58:10;14.90;61.80
16106;DHT22;8157;51.480;6.624;2023-06-05T03:00:44;14.90;61.80
16106;DHT22;8157;51.480;6.624;2023-06-05T03:03:14;14.90;62.00
16106;DHT22;8157;51.480;6.624;2023-06-05T03:05:44;14.80;62.20
16106;DHT22;8157;51.480;6.624;2023-06-05T03:08:15;14.70;62.10
16106;DHT22;8157;51.480;6.624;2023-06-05T03:10:45;14.70;62.30
16106;DHT22;8157;51.480;6.624;2023-06-05T03:13:12;14.70;62.40
16106;DHT22;8157;51.480;6.624;2023-06-05T03:15:40;15.10;62.80
16106;DHT22;8157;51.480;6.624;2023-06-05T03:18:14;14.60;62.50
16106;DHT22;8157;51.480;6.624;2023-06-05T03:20:42;15.50;63.40
16106;DHT22;8157;51.480;6.624;2023-06-05T03:23:11;15.80;63.50
16106;DHT22;8157;51.480;6.624;2023-06-05T03:25:39;14.70;63.10
16106;DHT22;8157;51.480;6.624;2023-06-05T03:28:06;14.50;63.10
16106;DHT22;8157;51.480;6.624;2023-06-05T03:30:34;13.00;62.20
16106;DHT22;8157;51.480;6.624;2023-06-05T03:33:02;15.20;63.50
16106;DHT22;8157;51.480;6.624;2023-06-05T03:35:31;14.50;63.10
16106;DHT22;8157;51.480;6.624;2023-06-05T03:38:03;14.50;63.40
16106;DHT22;8157;51.480;6.624;2023-06-05T03:40:31;14.50;63.30
16106;DHT22;8157;51.480;6.624;2023-06-05T03:43:01;14.40;63.50
16106;DHT22;8157;51.480;6.624;2023-06-05T03:45:34;14.50;63.30
16106;DHT22;8157;51.480;6.624;2023-06-05T03:48:03;15.30;64.40
16106;DHT22;8157;51.480;6.624;2023-06-05T03:50:35;14.40;63.80
16106;DHT22;8157;51.480;6.624;2023-06-05T03:53:04;14.40;64.00
16106;DHT22;8157;51.480;6.624;2023-06-05T03:55:35;15.10;64.20
16106;DHT22;8157;51.480;6.624;2023-06-05T03:58:11;15.40;64.80
16106;DHT22;8157;51.480;6.624;2023-06-05T04:00:40;14.30;64.10
16106;DHT22;8157;51.480;6.624;2023-06-05T04:03:09;14.30;64.20
16106;DHT22;8157;51.480;6.624;2023-06-05T04:05:39;14.30;64.40
16106;DHT22;8157;51.480;6.624;2023-06-05T04:08:07;14.30;64.50
16106;DHT22;8157;51.480;6.624;2023-06-05T04:10:35;14.30;64.50
16106;DHT22;8157;51.480;6.624;2023-06-05T04:13:02;15.20;65.00
16106;DHT22;8157;51.480;6.624;2023-06-05T04:15:31;14.50;64.60
16106;DHT22;8157;51.480;6.624;2023-06-05T04:17:59;14.30;64.50
16106;DHT22;8157;51.480;6.624;2023-06-05T04:20:28;14.40;64.70
16106;DHT22;8157;51.480;6.624;2023-06-05T04:22:58;15.70;65.60
16106;DHT22;8157;51.480;6.624;2023-06-05T04:25:27;15.00;65.10
16106;DHT22;8157;51.480;6.624;2023-06-05T04:27:55;14.40;64.90
16106;DHT22;8157;51.480;6.624;2023-06-05T04:30:23;14.80;65.20
16106;DHT22;8157;51.480;6.624;2023-06-05T04:32:50;15.30;65.40
16106;DHT22;8157;51.480;6.624;2023-06-05T04:35:21;14.50;65.00
16106;DHT22;8157;51.480;6.624;2023-06-05T04:37:49;14.50;65.10
16106;DHT22;8157;51.480;6.624;2023-06-05T04:40:19;15.50;65.80
16106;DHT22;8157;51.480;6.624;2023-06-05T04:42:48;14.50;65.20
16106;DHT22;8157;51.480;6.624;2023-06-05T04:45:17;14.50;65.10
16106;DHT22;8157;51.480;6.624;2023-06-05T04:47:47;14.50;65.00
16106;DHT22;8157;51.480;6.624;2023-06-05T04:50:22;15.60;65.80
16106;DHT22;8157;51.480;6.624;2023-06-05T04:52:52;14.60;65.70
16106;DHT22;8157;51.480;6.624;2023-06-05T04:55:22;14.70;65.40
16106;DHT22;8157;51.480;6.624;2023-06-05T04:57:52;14.70;65.40
16106;DHT22;8157;51.480;6.624;2023-06-05T05:00:20;14.80;65.40
16106;DHT22;8157;51.480;6.624;2023-06-05T05:02:48;14.80;65.40
16106;DHT22;8157;51.480;6.624;2023-06-05T05:05:17;14.80;65.30
16106;DHT22;8157;51.480;6.624;2023-06-05T05:07:45;14.90;65.30
16106;DHT22;8157;51.480;6.624;2023-06-05T05:10:14;16.10;66.00
16106;DHT22;8157;51.480;6.624;2023-06-05T05:12:43;15.00;65.50
16106;DHT22;8157;51.480;6.624;2023-06-05T05:15:10;15.00;65.50
16106;DHT22;8157;51.480;6.624;2023-06-05T05:17:38;15.10;65.40
16106;DHT22;8157;51.480;6.624;2023-06-05T05:20:06;15.10;65.60
16106;DHT22;8157;51.480;6.624;2023-06-05T05:22:37;15.20;65.60
16106;DHT22;8157;51.480;6.624;2023-06-05T05:25:06;15.90;65.90
16106;DHT22;8157;51.480;6.624;2023-06-05T05:27:33;15.30;65.40
16106;DHT22;8157;51.480;6.624;2023-06-05T05:30:02;16.30;66.20
16106;DHT22;8157;51.480;6.624;2023-06-05T05:32:31;15.40;65.70
16106;DHT22;8157;51.480;6.624;2023-06-05T05:34:59;15.50;65.70
16106;DHT22;8157;51.480;6.624;2023-06-05T05:37:26;15.60;65.70
16106;DHT22;8157;51.480;6.624;2023-06-05T05:39:54;15.60;65.80
16106;DHT22;8157;51.480;6.624;2023-06-05T05:42:21;15.70;65.70
16106;DHT22;8157;51.480;6.624;2023-06-05T05:44:48;15.80;65.70
16106;DHT22;8157;51.480;6.624;2023-06-05T05:47:17;15.90;65.70
16106;DHT22;8157;51.480;6.624;2023-06-05T05:49:43;16.00;65.60
16106;DHT22;8157;51.480;6.624;2023-06-05T05:52:10;16.10;65.70
16106;DHT22;8157;51.480;6.624;2023-06-05T05:54:37;17.30;66.70
16106;DHT22;8157;51.480;6.624;2023-06-05T05:57:04;16.50;66.20
16106;DHT22;8157;51.480;6.624;2023-06-05T05:59:33;16.70;66.40
16106;DHT22;8157;51.480;6.624;2023-06-05T06:02:00;16.90;66.60
16106;DHT22;8157;51.480;6.624;2023-06-05T06:04:35;17.20;66.60
16106;DHT22;8157;51.480;6.624;2023-06-05T06:07:02;17.50;66.10
16106;DHT22;8157;51.480;6.624;2023-06-05T06:09:31;17.80;65.60
16106;DHT22;8157;51.480;6.624;2023-06-05T06:11:59;18.00;65.30
16106;DHT22;8157;51.480;6.624;2023-06-05T06:14:31;18.20;64.90
16106;DHT22;8157;51.480;6.624;2023-06-05T06:16:58;18.50;64.70
16106;DHT22;8157;51.480;6.624;2023-06-05T06:19:26;18.70;64.70
16106;DHT22;8157;51.480;6.624;2023-06-05T06:21:54;19.00;65.10
16106;DHT22;8157;51.480;6.624;2023-06-05T06:24:22;19.40;65.50
16106;DHT22;8157;51.480;6.624;2023-06-05T06:26:50;19.70;64.70
16106;DHT22;8157;51.480;6.624;2023-06-05T06:29:18;20.10;64.10
16106;DHT22;8157;51.480;6.624;2023-06-05T06:31:46;20.40;63.40
16106;DHT22;8157;51.480;6.624;2023-06-05T06:34:13;20.60;62.70
16106;DHT22;8157;51.480;6.624;2023-06-05T06:36:40;20.80;62.20
16106;DHT22;8157;51.480;6.624;2023-06-05T06:39:11;21.00;61.60
16106;DHT22;8157;51.480;6.624;2023-06-05T06:41:39;21.20;61.30
16106;DHT22;8157;51.480;6.624;2023-06-05T06:44:05;21.40;61.00
16106;DHT22;8157;51.480;6.624;2023-06-05T06:46:32;21.70;61.20
16106;DHT22;8157;51.480;6.624;2023-06-05T06:48:59;22.00;61.90
16106;DHT22;8157;51.480;6.624;2023-06-05T06:51:27;22.50;62.50
16106;DHT22;8157;51.480;6.624;2023-06-05T06:53:54;22.90;62.30
16106;DHT22;8157;51.480;6.624;2023-06-05T06:56:23;23.40;62.10
16106;DHT22;8157;51.480;6.624;2023-06-05T06:58:53;24.00;61.70
16106;DHT22;8157;51.480;6.624;2023-06-05T07:01:20;24.60;61.40
16106;DHT22;8157;51.480;6.624;2023-06-05T07:03:47;25.30;61.00
16106;DHT22;8157;51.480;6.624;2023-06-05T07:06:14;25.80;59.70
16106;DHT22;8157;51.480;6.624;2023-06-05T07:08:42;26.50;58.70
16106;DHT22;8157;51.480;6.624;2023-06-05T07:11:09;27.50;58.20
16106;DHT22;8157;51.480;6.624;2023-06-05T07:13:38;27.60;57.20
16106;DHT22;8157;51.480;6.624;2023-06-05T07:16:05;28.10;56.00
16106;DHT22;8157;51.480;6.624;2023-06-05T07:18:33;28.70;55.30
16106;DHT22;8157;51.480;6.624;2023-06-05T07:21:01;29.00;54.80
16106;DHT22;8157;51.480;6.624;2023-06-05T07:23:28;29.90;53.90
16106;DHT22;8157;51.480;6.624;2023-06-05T07:25:55;30.00;54.30
16106;DHT22;8157;51.480;6.624;2023-06-05T07:28:22;30.60;53.00
16106;DHT22;8157;51.480;6.624;2023-06-05T07:30:52;31.10;52.80
16106;DHT22;8157;51.480;6.624;2023-06-05T07:33:19;31.50;51.00
16106;DHT22;8157;51.480;6.624;2023-06-05T07:35:46;32.20;49.70
16106;DHT22;8157;51.480;6.624;2023-06-05T07:38:14;32.30;49.80
16106;DHT22;8157;51.480;6.624;2023-06-05T07:40:42;32.50;49.00
16106;DHT22;8157;51.480;6.624;2023-06-05T07:43:09;32.90;48.30
16106;DHT22;8157;51.480;6.624;2023-06-05T07:45:40;33.30;47.70
16106;DHT22;8157;51.480;6.624;2023-06-05T07:48:09;33.40;47.20
16106;DHT22;8157;51.480;6.624;2023-06-05T07:50:35;33.70;46.60
16106;DHT22;8157;51.480;6.624;2023-06-05T07:53:03;34.00;46.60
16106;DHT22;8157;51.480;6.624;2023-06-05T07:55:30;34.30;45.50
16106;DHT22;8157;51.480;6.624;2023-06-05T07:57:57;34.50;44.60
16106;DHT22;8157;51.480;6.624;2023-06-05T08:00:26;34.70;44.20
16106;DHT22;8157;51.480;6.624;2023-06-05T08:02:54;34.60;43.70
16106;DHT22;8157;51.480;6.624;2023-06-05T08:05:24;34.70;43.50
16106;DHT22;8157;51.480;6.624;2023-06-05T08:07:51;34.70;42.60
16106;DHT22;8157;51.480;6.624;2023-06-05T08:10:18;34.80;43.10
16106;DHT22;8157;51.480;6.624;2023-06-05T08:12:45;34.80;43.00
16106;DHT22;8157;51.480;6.624;2023-06-05T08:15:12;35.00;43.10
16106;DHT22;8157;51.480;6.624;2023-06-05T08:17:40;35.10;43.00
16106;DHT22;8157;51.480;6.624;2023-06-05T08:20:08;35.40;42.90
16106;DHT22;8157;51.480;6.624;2023-06-05T08:22:38;35.50;42.40
16106;DHT22;8157;51.480;6.624;2023-06-05T08:25:06;35.70;41.70
16106;DHT22;8157;51.480;6.624;2023-06-05T08:27:34;35.80;41.50
16106;DHT22;8157;51.480;6.624;2023-06-05T08:30:02;35.90;41.50
16106;DHT22;8157;51.480;6.624;2023-06-05T08:32:29;36.00;41.10
16106;DHT22;8157;51.480;6.624;2023-06-05T08:34:57;36.10;41.10
16106;DHT22;8157;51.480;6.624;2023-06-05T08:37:24;36.10;40.70
16106;DHT22;8157;51.480;6.624;2023-06-05T08:39:55;36.30;41.10
16106;DHT22;8157;51.480;6.624;2023-06-05T08:42:25;36.50;40.10
16106;DHT22;8157;51.480;6.624;2023-06-05T08:44:54;36.70;40.40
16106;DHT22;8157;51.480;6.624;2023-06-05T08:47:22;36.90;39.90
16106;DHT22;8157;51.480;6.624;2023-06-05T08:50:05;37.10;39.50
16106;DHT22;8157;51.480;6.624;2023-06-05T08:52:34;37.20;39.00
16106;DHT22;8157;51.480;6.624;2023-06-05T08:55:04;37.40;39.40
16106;DHT22;8157;51.480;6.624;2023-06-05T08:57:34;37.70;36.70
16106;DHT22;8157;51.480;6.624;2023-06-05T09:00:03;37.70;38.20
16106;DHT22;8157;51.480;6.624;2023-06-05T09:02:33;38.00;38.40
16106;DHT22;8157;51.480;6.624;2023-06-05T09:05:03;38.20;38.30
16106;DHT22;8157;51.480;6.624;2023-06-05T09:07:32;38.40;37.90
16106;DHT22;8157;51.480;6.624;2023-06-05T09:10:00;38.50;37.80
16106;DHT22;8157;51.480;6.624;2023-06-05T09:12:28;38.70;37.70
16106;DHT22;8157;51.480;6.624;2023-06-05T09:14:56;38.80;37.00
16106;DHT22;8157;51.480;6.624;2023-06-05T09:17:23;38.90;36.50
16106;DHT22;8157;51.480;6.624;2023-06-05T09:19:50;38.80;36.00
16106;DHT22;8157;51.480;6.624;2023-06-05T09:22:32;38.80;35.90
16106;DHT22;8157;51.480;6.624;2023-06-05T09:25:00;38.60;35.20
16106;DHT22;8157;51.480;6.624;2023-06-05T09:27:29;38.50;35.60
16106;DHT22;8157;51.480;6.624;2023-06-05T09:30:02;38.40;35.80
16106;DHT22;8157;51.480;6.624;2023-06-05T09:32:30;38.30;35.90
16106;DHT22;8157;51.480;6.624;2023-06-05T09:34:58;38.30;35.60
16106;DHT22;8157;51.480;6.624;2023-06-05T09:37:33;38.30;35.30
16106;DHT22;8157;51.480;6.624;2023-06-05T09:40:01;38.30;35.80
16106;DHT22;8157;51.480;6.624;2023-06-05T09:42:34;38.30;36.00
16106;DHT22;8157;51.480;6.624;2023-06-05T09:45:02;38.30;36.40
16106;DHT22;8157;51.480;6.624;2023-06-05T09:47:30;38.40;36.30
16106;DHT22;8157;51.480;6.624;2023-06-05T09:49:57;38.50;36.20
16106;DHT22;8157;51.480;6.624;2023-06-05T09:52:24;38.60;36.00
16106;DHT22;8157;51.480;6.624;2023-06-05T09:54:54;38.60;36.00
16106;DHT22;8157;51.480;6.624;2023-06-05T09:57:24;38.80;35.80
16106;DHT22;8157;51.480;6.624;2023-06-05T09:59:54;38.80;35.30
16106;DHT22;8157;51.480;6.624;2023-06-05T10:02:24;38.70;34.40
16106;DHT22;8157;51.480;6.624;2023-06-05T10:04:54;38.60;35.00
16106;DHT22;8157;51.480;6.624;2023-06-05T10:07:24;38.50;34.60
16106;DHT22;8157;51.480;6.624;2023-06-05T10:09:50;38.40;34.60
16106;DHT22;8157;51.480;6.624;2023-06-05T10:12:18;38.20;35.10
16106;DHT22;8157;51.480;6.624;2023-06-05T10:14:47;38.00;34.90
16106;DHT22;8157;51.480;6.624;2023-06-05T10:17:17;38.00;35.00
16106;DHT22;8157;51.480;6.624;2023-06-05T10:19:45;37.90;35.20
16106;DHT22;8157;51.480;6.624;2023-06-05T10:22:13;37.90;35.10
16106;DHT22;8157;51.480;6.624;2023-06-05T10:24:44;37.90;35.70
16106;DHT22;8157;51.480;6.624;2023-06-05T10:27:33;38.00;35.90
16106;DHT22;8157;51.480;6.624;2023-06-05T10:30:22;38.10;34.90
16106;DHT22;8157;51.480;6.624;2023-06-05T10:33:03;38.10;34.30
16106;DHT22;8157;51.480;6.624;2023-06-05T10:35:43;38.10;34.30
16106;DHT22;8157;51.480;6.624;2023-06-05T10:38:17;37.90;34.10
16106;DHT22;8157;51.480;6.624;2023-06-05T10:40:46;37.70;34.10
16106;DHT22;8157;51.480;6.624;2023-06-05T10:43:29;37.60;34.20
16106;DHT22;8157;51.480;6.624;2023-06-05T10:45:58;37.50;34.00
16106;DHT22;8157;51.480;6.624;2023-06-05T10:51:39;37.40;34.70
16106;DHT22;8157;51.480;6.624;2023-06-05T10:54:08;37.30;35.30
16106;DHT22;8157;51.480;6.624;2023-06-05T10:56:56;37.30;35.10
16106;DHT22;8157;51.480;6.624;2023-06-05T10:59:26;37.40;34.50
16106;DHT22;8157;51.480;6.624;2023-06-05T11:02:22;37.50;35.20
16106;DHT22;8157;51.480;6.624;2023-06-05T11:05:10;37.40;34.30
16106;DHT22;8157;51.480;6.624;2023-06-05T11:07:42;37.40;34.50
16106;DHT22;8157;51.480;6.624;2023-06-05T11:10:13;37.40;35.20
16106;DHT22;8157;51.480;6.624;2023-06-05T11:13:10;37.50;34.80
16106;DHT22;8157;51.480;6.624;2023-06-05T11:15:41;37.60;34.90
16106;DHT22;8157;51.480;6.624;2023-06-05T11:18:28;37.60;34.40
16106;DHT22;8157;51.480;6.624;2023-06-05T11:20:57;37.50;33.60
16106;DHT22;8157;51.480;6.624;2023-06-05T11:23:25;37.50;34.40
16106;DHT22;8157;51.480;6.624;2023-06-05T11:25:57;37.50;34.30
16106;DHT22;8157;51.480;6.624;2023-06-05T11:28:42;37.50;33.90
16106;DHT22;8157;51.480;6.624;2023-06-05T11:31:10;37.50;32.70
16106;DHT22;8157;51.480;6.624;2023-06-05T11:33:37;37.40;33.40
16106;DHT22;8157;51.480;6.624;2023-06-05T11:36:06;37.40;33.50
16106;DHT22;8157;51.480;6.624;2023-06-05T11:38:36;37.40;33.10
16106;DHT22;8157;51.480;6.624;2023-06-05T11:41:08;36.70;32.30
16106;DHT22;8157;51.480;6.624;2023-06-05T11:43:42;37.40;32.40
16106;DHT22;8157;51.480;6.624;2023-06-05T11:46:10;37.20;32.60
16106;DHT22;8157;51.480;6.624;2023-06-05T11:48:43;37.10;32.90
16106;DHT22;8157;51.480;6.624;2023-06-05T11:51:11;37.00;32.80
16106;DHT22;8157;51.480;6.624;2023-06-05T11:53:45;36.90;33.00
16106;DHT22;8157;51.480;6.624;2023-06-05T11:56:16;36.90;33.50
16106;DHT22;8157;51.480;6.624;2023-06-05T11:58:43;36.80;33.60
16106;DHT22;8157;51.480;6.624;2023-06-05T12:01:13;36.80;33.20
16106;DHT22;8157;51.480;6.624;2023-06-05T12:03:44;36.70;32.70
16106;DHT22;8157;51.480;6.624;2023-06-05T12:06:12;36.70;32.80
16106;DHT22;8157;51.480;6.624;2023-06-05T12:08:41;36.70;33.10
16106;DHT22;8157;51.480;6.624;2023-06-05T12:11:24;36.70;33.10
16106;DHT22;8157;51.480;6.624;2023-06-05T12:13:53;36.70;32.80
16106;DHT22;8157;51.480;6.624;2023-06-05T12:16:30;36.70;33.50
16106;DHT22;8157;51.480;6.624;2023-06-05T12:19:10;36.70;34.30
16106;DHT22;8157;51.480;6.624;2023-06-05T12:21:37;36.80;33.80
16106;DHT22;8157;51.480;6.624;2023-06-05T12:24:06;36.90;33.70
16106;DHT22;8157;51.480;6.624;2023-06-05T12:26:54;37.00;33.40
16106;DHT22;8157;51.480;6.624;2023-06-05T12:29:25;37.00;32.70
16106;DHT22;8157;51.480;6.624;2023-06-05T12:31:54;37.10;32.90
16106;DHT22;8157;51.480;6.624;2023-06-05T12:34:41;37.00;32.10
16106;DHT22;8157;51.480;6.624;2023-06-05T12:37:11;37.00;31.30
16106;DHT22;8157;51.480;6.624;2023-06-05T12:39:38;37.00;32.20
16106;DHT22;8157;51.480;6.624;2023-06-05T12:42:08;37.00;32.00
16106;DHT22;8157;51.480;6.624;2023-06-05T12:44:35;37.00;31.70
16106;DHT22;8157;51.480;6.624;2023-06-05T12:47:02;37.00;31.40
16106;DHT22;8157;51.480;6.624;2023-06-05T12:49:30;37.00;30.70
16106;DHT22;8157;51.480;6.624;2023-06-05T12:51:57;37.00;31.10
16106;DHT22;8157;51.480;6.624;2023-06-05T12:54:25;37.00;31.00
16106;DHT22;8157;51.480;6.624;2023-06-05T12:56:54;37.10;31.00
16106;DHT22;8157;51.480;6.624;2023-06-05T12:59:23;37.00;30.90
16106;DHT22;8157;51.480;6.624;2023-06-05T13:01:50;36.90;31.40
16106;DHT22;8157;51.480;6.624;2023-06-05T13:04:17;36.90;31.00
16106;DHT22;8157;51.480;6.624;2023-06-05T13:06:44;36.90;30.40
16106;DHT22;8157;51.480;6.624;2023-06-05T13:09:13;36.80;30.00
16106;DHT22;8157;51.480;6.624;2023-06-05T13:11:40;36.70;31.00
16106;DHT22;8157;51.480;6.624;2023-06-05T13:14:07;36.60;31.20
16106;DHT22;8157;51.480;6.624;2023-06-05T13:16:36;36.50;30.80
16106;DHT22;8157;51.480;6.624;2023-06-05T13:19:03;36.40;30.20
16106;DHT22;8157;51.480;6.624;2023-06-05T13:21:31;36.40;30.50
16106;DHT22;8157;51.480;6.624;2023-06-05T13:23:58;36.30;30.00
16106;DHT22;8157;51.480;6.624;2023-06-05T13:26:26;36.30;29.50
16106;DHT22;8157;51.480;6.624;2023-06-05T13:28:53;36.10;29.40
16106;DHT22;8157;51.480;6.624;2023-06-05T13:31:21;36.00;30.00
16106;DHT22;8157;51.480;6.624;2023-06-05T13:33:49;35.90;30.00
16106;DHT22;8157;51.480;6.624;2023-06-05T13:36:16;35.90;29.80
16106;DHT22;8157;51.480;6.624;2023-06-05T13:38:43;35.70;29.40
16106;DHT22;8157;51.480;6.624;2023-06-05T13:41:13;35.50;29.40
16106;DHT22;8157;51.480;6.624;2023-06-05T13:43:40;35.30;29.40
16106;DHT22;8157;51.480;6.624;2023-06-05T13:46:08;35.10;29.00
16106;DHT22;8157;51.480;6.624;2023-06-05T13:48:35;34.90;29.30
16106;DHT22;8157;51.480;6.624;2023-06-05T13:51:04;34.60;29.50
16106;DHT22;8157;51.480;6.624;2023-06-05T13:53:32;34.60;29.70
16106;DHT22;8157;51.480;6.624;2023-06-05T13:56:00;34.50;30.00
16106;DHT22;8157;51.480;6.624;2023-06-05T13:58:28;34.30;30.00
16106;DHT22;8157;51.480;6.624;2023-06-05T14:00:56;34.10;29.60
16106;DHT22;8157;51.480;6.624;2023-06-05T14:03:23;34.00;29.70
16106;DHT22;8157;51.480;6.624;2023-06-05T14:05:50;33.90;29.70
16106;DHT22;8157;51.480;6.624;2023-06-05T14:08:19;33.70;29.40
16106;DHT22;8157;51.480;6.624;2023-06-05T14:10:46;33.50;29.30
16106;DHT22;8157;51.480;6.624;2023-06-05T14:13:13;33.30;29.10
16106;DHT22;8157;51.480;6.624;2023-06-05T14:15:41;33.00;29.30
16106;DHT22;8157;51.480;6.624;2023-06-05T14:18:08;32.80;29.70
16106;DHT22;8157;51.480;6.624;2023-06-05T14:20:35;32.60;29.90
16106;DHT22;8157;51.480;6.624;2023-06-05T14:23:03;32.30;30.00
16106;DHT22;8157;51.480;6.624;2023-06-05T14:25:31;32.10;30.00
16106;DHT22;8157;51.480;6.624;2023-06-05T14:27:58;32.00;30.80
16106;DHT22;8157;51.480;6.624;2023-06-05T14:30:25;31.80;30.70
16106;DHT22;8157;51.480;6.624;2023-06-05T14:32:52;31.70;30.70
16106;DHT22;8157;51.480;6.624;2023-06-05T14:35:20;31.60;30.80
16106;DHT22;8157;51.480;6.624;2023-06-05T14:37:48;31.60;30.90
16106;DHT22;8157;51.480;6.624;2023-06-05T14:40:16;31.50;31.20
16106;DHT22;8157;51.480;6.624;2023-06-05T14:42:45;31.40;31.20
16106;DHT22;8157;51.480;6.624;2023-06-05T14:45:11;31.40;31.50
16106;DHT22;8157;51.480;6.624;2023-06-05T14:47:39;31.30;31.10
16106;DHT22;8157;51.480;6.624;2023-06-05T14:50:07;31.30;30.80
16106;DHT22;8157;51.480;6.624;2023-06-05T14:52:35;31.20;31.30
16106;DHT22;8157;51.480;6.624;2023-06-05T14:55:02;31.10;31.10
16106;DHT22;8157;51.480;6.624;2023-06-05T14:57:29;31.00;31.20
16106;DHT22;8157;51.480;6.624;2023-06-05T14:59:57;30.90;30.90
16106;DHT22;8157;51.480;6.624;2023-06-05T15:02:25;30.80;31.00
16106;DHT22;8157;51.480;6.624;2023-06-05T15:04:52;30.70;31.20
16106;DHT22;8157;51.480;6.624;2023-06-05T15:07:19;30.70;31.40
16106;DHT22;8157;51.480;6.624;2023-06-05T15:09:47;30.60;31.50
16106;DHT22;8157;51.480;6.624;2023-06-05T15:12:15;30.50;31.60
16106;DHT22;8157;51.480;6.624;2023-06-05T15:14:42;30.40;31.80
16106;DHT22;8157;51.480;6.624;2023-06-05T15:17:11;30.40;31.90
16106;DHT22;8157;51.480;6.624;2023-06-05T15:19:38;30.60;31.90
16106;DHT22;8157;51.480;6.624;2023-06-05T15:22:05;30.90;32.10
16106;DHT22;8157;51.480;6.624;2023-06-05T15:24:33;30.30;31.50
16106;DHT22;8157;51.480;6.624;2023-06-05T15:27:02;30.30;31.70
16106;DHT22;8157;51.480;6.624;2023-06-05T15:29:29;30.20;31.70
16106;DHT22;8157;51.480;6.624;2023-06-05T15:31:56;30.10;31.70
16106;DHT22;8157;51.480;6.624;2023-06-05T15:34:24;30.10;31.80
16106;DHT22;8157;51.480;6.624;2023-06-05T15:36:51;30.10;32.10
16106;DHT22;8157;51.480;6.624;2023-06-05T15:39:18;30.00;32.20
16106;DHT22;8157;51.480;6.624;2023-06-05T15:41:45;30.20;32.30
16106;DHT22;8157;51.480;6.624;2023-06-05T15:44:14;30.30;32.60
16106;DHT22;8157;51.480;6.624;2023-06-05T15:46:42;29.90;32.30
16106;DHT22;8157;51.480;6.624;2023-06-05T15:49:11;29.90;32.80
16106;DHT22;8157;51.480;6.624;2023-06-05T15:51:39;29.90;32.80
16106;DHT22;8157;51.480;6.624;2023-06-05T15:54:06;29.90;32.60
16106;DHT22;8157;51.480;6.624;2023-06-05T15:56:37;30.10;33.60
16106;DHT22;8157;51.480;6.624;2023-06-05T15:59:04;29.90;33.20
16106;DHT22;8157;51.480;6.624;2023-06-05T16:01:31;29.90;32.70